Liberty, Nebraska
Current Conditions -  °F | °C
As of 6:55 AM on Friday 24 Oct 2014 (Local Time) from KMYZ Reporting Station
Clear Clear  
Wind Chill: 57°   Ceiling: Unl
Heat Index: 57°   Visibility: 7mi
Dew Point: 57°   Wind: 8mph
Humidity: 100%   Direction: 200°SSW
Pressure: 30"   Gusts: NA
Location:  40.08°N, 96.48°W
Report Text: KMYZ 241155Z AUTO 20007KT 7SM CLR 14/14 A3000 RMK AO2
Loading
Personal Weather Stations






























Interactive Weather Map
Tropical Storm Tracking
New forecast layout! Learn more

10-Day Weather Forecast

Advertisements
Track Severe Weather on mobile